sensor_id;sensor_type;location;lat;lon;timestamp;pressure;altitude;pressure_sealevel;temperature;humidity
3178;BME280;38141;42.666;23.344;2023-04-09T00:01:37;94855.09;;;7.19;100.00
3178;BME280;38141;42.666;23.344;2023-04-09T00:04:04;94842.72;;;7.14;100.00
3178;BME280;38141;42.666;23.344;2023-04-09T00:06:30;94856.59;;;7.17;100.00
3178;BME280;38141;42.666;23.344;2023-04-09T00:08:57;94863.47;;;7.14;100.00
3178;BME280;38141;42.666;23.344;2023-04-09T00:11:24;94862.50;;;7.03;100.00
3178;BME280;38141;42.666;23.344;2023-04-09T00:13:51;94823.84;;;6.92;100.00
3178;BME280;38141;42.666;23.344;2023-04-09T00:16:17;94851.03;;;7.06;100.00
3178;BME280;38141;42.666;23.344;2023-04-09T00:18:46;94873.81;;;7.12;100.00
3178;BME280;38141;42.666;23.344;2023-04-09T00:21:12;94851.38;;;7.04;100.00
3178;BME280;38141;42.666;23.344;2023-04-09T00:23:40;94848.38;;;7.09;100.00
3178;BME280;38141;42.666;23.344;2023-04-09T00:26:07;94877.97;;;7.29;100.00
3178;BME280;38141;42.666;23.344;2023-04-09T00:28:34;94884.56;;;7.31;100.00
3178;BME280;38141;42.666;23.344;2023-04-09T00:31:01;94824.06;;;7.02;100.00
3178;BME280;38141;42.666;23.344;2023-04-09T00:33:27;94852.69;;;7.14;100.00
3178;BME280;38141;42.666;23.344;2023-04-09T00:35:56;94869.09;;;7.28;100.00
3178;BME280;38141;42.666;23.344;2023-04-09T00:38:23;94869.59;;;7.34;100.00
3178;BME280;38141;42.666;23.344;2023-04-09T00:40:50;94877.75;;;7.18;100.00
3178;BME280;38141;42.666;23.344;2023-04-09T00:43:17;94877.19;;;7.28;100.00
3178;BME280;38141;42.666;23.344;2023-04-09T00:45:44;94878.81;;;7.33;100.00
3178;BME280;38141;42.666;23.344;2023-04-09T00:48:11;94838.31;;;7.26;100.00
3178;BME280;38141;42.666;23.344;2023-04-09T00:50:38;94866.09;;;7.52;100.00
3178;BME280;38141;42.666;23.344;2023-04-09T00:53:07;94870.22;;;7.46;100.00
3178;BME280;38141;42.666;23.344;2023-04-09T00:55:35;94861.03;;;7.28;100.00
3178;BME280;38141;42.666;23.344;2023-04-09T00:58:02;94867.56;;;7.50;100.00
3178;BME280;38141;42.666;23.344;2023-04-09T01:00:29;94848.09;;;7.14;100.00
3178;BME280;38141;42.666;23.344;2023-04-09T01:02:56;94798.13;;;6.72;100.00
3178;BME280;38141;42.666;23.344;2023-04-09T01:05:30;94874.69;;;7.39;100.00
3178;BME280;38141;42.666;23.344;2023-04-09T01:08:05;94865.91;;;7.42;100.00
3178;BME280;38141;42.666;23.344;2023-04-09T01:10:41;94853.13;;;7.35;100.00
3178;BME280;38141;42.666;23.344;2023-04-09T01:13:11;94868.44;;;7.54;100.00
3178;BME280;38141;42.666;23.344;2023-04-09T01:15:45;94880.28;;;7.49;100.00
3178;BME280;38141;42.666;23.344;2023-04-09T01:18:18;94882.28;;;7.33;100.00
3178;BME280;38141;42.666;23.344;2023-04-09T01:20:53;94840.13;;;6.99;100.00
3178;BME280;38141;42.666;23.344;2023-04-09T01:23:30;94876.34;;;7.24;100.00
3178;BME280;38141;42.666;23.344;2023-04-09T01:26:05;94878.97;;;7.21;100.00
3178;BME280;38141;42.666;23.344;2023-04-09T01:28:36;94876.78;;;7.26;100.00
3178;BME280;38141;42.666;23.344;2023-04-09T01:31:09;94883.66;;;7.46;100.00
3178;BME280;38141;42.666;23.344;2023-04-09T01:33:38;94879.63;;;7.56;100.00
3178;BME280;38141;42.666;23.344;2023-04-09T01:36:05;94874.94;;;7.30;100.00
3178;BME280;38141;42.666;23.344;2023-04-09T01:38:34;94890.13;;;7.42;100.00
3178;BME280;38141;42.666;23.344;2023-04-09T01:41:02;94881.56;;;7.36;100.00
3178;BME280;38141;42.666;23.344;2023-04-09T01:43:30;94870.91;;;7.21;100.00
3178;BME280;38141;42.666;23.344;2023-04-09T01:45:59;94882.44;;;7.21;100.00
3178;BME280;38141;42.666;23.344;2023-04-09T01:48:28;94871.97;;;6.97;100.00
3178;BME280;38141;42.666;23.344;2023-04-09T01:50:55;94872.81;;;7.01;100.00
3178;BME280;38141;42.666;23.344;2023-04-09T01:53:23;94869.06;;;6.86;100.00
3178;BME280;38141;42.666;23.344;2023-04-09T01:55:52;94877.06;;;7.21;100.00
3178;BME280;38141;42.666;23.344;2023-04-09T01:58:20;94861.94;;;7.13;100.00
3178;BME280;38141;42.666;23.344;2023-04-09T02:00:47;94884.75;;;7.23;100.00
3178;BME280;38141;42.666;23.344;2023-04-09T02:03:20;94883.06;;;7.14;100.00
3178;BME280;38141;42.666;23.344;2023-04-09T02:06:00;94871.19;;;7.15;100.00
3178;BME280;38141;42.666;23.344;2023-04-09T02:08:33;94840.94;;;6.80;100.00
3178;BME280;38141;42.666;23.344;2023-04-09T02:11:03;94774.78;;;6.37;100.00
3178;BME280;38141;42.666;23.344;2023-04-09T02:13:31;94810.63;;;6.83;100.00
3178;BME280;38141;42.666;23.344;2023-04-09T02:16:00;94840.69;;;6.69;100.00
3178;BME280;38141;42.666;23.344;2023-04-09T02:18:29;94880.31;;;7.11;100.00
3178;BME280;38141;42.666;23.344;2023-04-09T02:20:58;94874.09;;;7.07;100.00
3178;BME280;38141;42.666;23.344;2023-04-09T02:23:25;94886.97;;;7.17;100.00
3178;BME280;38141;42.666;23.344;2023-04-09T02:25:52;94877.63;;;7.11;100.00
3178;BME280;38141;42.666;23.344;2023-04-09T02:28:19;94869.50;;;7.07;100.00
3178;BME280;38141;42.666;23.344;2023-04-09T02:30:46;94772.53;;;6.39;100.00
3178;BME280;38141;42.666;23.344;2023-04-09T02:33:13;94800.31;;;6.66;100.00
3178;BME280;38141;42.666;23.344;2023-04-09T02:35:41;94864.47;;;7.06;100.00
3178;BME280;38141;42.666;23.344;2023-04-09T02:38:08;94882.72;;;7.35;100.00
3178;BME280;38141;42.666;23.344;2023-04-09T02:40:39;94877.09;;;7.44;100.00
3178;BME280;38141;42.666;23.344;2023-04-09T02:43:06;94877.91;;;7.25;100.00
3178;BME280;38141;42.666;23.344;2023-04-09T02:45:33;94878.63;;;7.22;100.00
3178;BME280;38141;42.666;23.344;2023-04-09T02:48:00;94878.69;;;7.26;100.00
3178;BME280;38141;42.666;23.344;2023-04-09T02:50:26;94884.41;;;7.24;100.00
3178;BME280;38141;42.666;23.344;2023-04-09T02:52:55;94875.16;;;7.22;100.00
3178;BME280;38141;42.666;23.344;2023-04-09T02:55:21;94871.84;;;7.32;100.00
3178;BME280;38141;42.666;23.344;2023-04-09T02:57:48;94870.88;;;7.40;100.00
3178;BME280;38141;42.666;23.344;2023-04-09T03:00:15;94867.50;;;7.24;100.00
3178;BME280;38141;42.666;23.344;2023-04-09T03:02:42;94864.13;;;7.07;100.00
3178;BME280;38141;42.666;23.344;2023-04-09T03:05:09;94865.59;;;7.05;100.00
3178;BME280;38141;42.666;23.344;2023-04-09T03:07:35;94843.50;;;7.15;100.00
3178;BME280;38141;42.666;23.344;2023-04-09T03:10:04;94870.13;;;7.20;100.00
3178;BME280;38141;42.666;23.344;2023-04-09T03:12:31;94863.63;;;7.21;100.00
3178;BME280;38141;42.666;23.344;2023-04-09T03:14:58;94852.75;;;6.95;100.00
3178;BME280;38141;42.666;23.344;2023-04-09T03:17:25;94844.13;;;6.86;100.00
3178;BME280;38141;42.666;23.344;2023-04-09T03:19:51;94867.81;;;6.99;100.00
3178;BME280;38141;42.666;23.344;2023-04-09T03:22:18;94869.72;;;6.99;100.00
3178;BME280;38141;42.666;23.344;2023-04-09T03:24:45;94871.34;;;7.03;100.00
3178;BME280;38141;42.666;23.344;2023-04-09T03:27:13;94870.50;;;6.99;100.00
3178;BME280;38141;42.666;23.344;2023-04-09T03:29:40;94870.41;;;6.96;100.00
3178;BME280;38141;42.666;23.344;2023-04-09T03:32:07;94841.69;;;6.81;100.00
3178;BME280;38141;42.666;23.344;2023-04-09T03:34:34;94876.91;;;7.14;100.00
3178;BME280;38141;42.666;23.344;2023-04-09T03:37:00;94877.06;;;7.02;100.00
3178;BME280;38141;42.666;23.344;2023-04-09T03:39:27;94869.28;;;6.97;100.00
3178;BME280;38141;42.666;23.344;2023-04-09T03:41:55;94842.78;;;6.76;100.00
3178;BME280;38141;42.666;23.344;2023-04-09T03:44:23;94868.94;;;6.98;100.00
3178;BME280;38141;42.666;23.344;2023-04-09T03:46:50;94868.94;;;6.98;100.00
3178;BME280;38141;42.666;23.344;2023-04-09T03:49:17;94872.25;;;6.92;100.00
3178;BME280;38141;42.666;23.344;2023-04-09T03:51:43;94841.34;;;6.63;100.00
3178;BME280;38141;42.666;23.344;2023-04-09T03:54:10;94876.78;;;6.88;100.00
3178;BME280;38141;42.666;23.344;2023-04-09T03:56:37;94861.22;;;6.58;100.00
3178;BME280;38141;42.666;23.344;2023-04-09T03:59:04;94888.88;;;6.78;100.00
3178;BME280;38141;42.666;23.344;2023-04-09T04:01:32;94876.44;;;6.89;100.00
3178;BME280;38141;42.666;23.344;2023-04-09T04:03:59;94887.09;;;7.05;100.00
3178;BME280;38141;42.666;23.344;2023-04-09T04:06:25;94883.06;;;7.14;100.00
3178;BME280;38141;42.666;23.344;2023-04-09T04:08:52;94885.25;;;7.09;100.00
3178;BME280;38141;42.666;23.344;2023-04-09T04:11:19;94865.25;;;6.87;100.00
3178;BME280;38141;42.666;23.344;2023-04-09T04:13:46;94893.06;;;6.95;100.00
3178;BME280;38141;42.666;23.344;2023-04-09T04:16:13;94891.16;;;6.76;100.00
3178;BME280;38141;42.666;23.344;2023-04-09T04:18:41;94886.06;;;6.90;100.00
3178;BME280;38141;42.666;23.344;2023-04-09T04:21:12;94890.44;;;6.79;100.00
3178;BME280;38141;42.666;23.344;2023-04-09T04:23:39;94884.63;;;6.77;100.00
3178;BME280;38141;42.666;23.344;2023-04-09T04:26:06;94880.75;;;6.75;100.00
3178;BME280;38141;42.666;23.344;2023-04-09T04:28:34;94892.78;;;6.81;100.00
3178;BME280;38141;42.666;23.344;2023-04-09T04:31:02;94802.88;;;6.40;100.00
3178;BME280;38141;42.666;23.344;2023-04-09T04:33:32;94889.38;;;6.84;100.00
3178;BME280;38141;42.666;23.344;2023-04-09T04:36:08;94898.28;;;6.88;100.00
3178;BME280;38141;42.666;23.344;2023-04-09T04:38:36;94862.19;;;6.69;100.00
3178;BME280;38141;42.666;23.344;2023-04-09T04:41:03;94778.13;;;6.31;100.00
3178;BME280;38141;42.666;23.344;2023-04-09T04:43:31;94887.53;;;7.07;100.00
3178;BME280;38141;42.666;23.344;2023-04-09T04:45:59;94864.13;;;6.88;100.00
3178;BME280;38141;42.666;23.344;2023-04-09T04:48:27;94862.50;;;6.84;100.00
3178;BME280;38141;42.666;23.344;2023-04-09T04:50:55;94881.16;;;6.96;100.00
3178;BME280;38141;42.666;23.344;2023-04-09T04:53:24;94892.38;;;7.17;100.00
3178;BME280;38141;42.666;23.344;2023-04-09T04:55:51;94901.47;;;7.32;100.00
3178;BME280;38141;42.666;23.344;2023-04-09T04:58:19;94898.47;;;7.37;100.00
3178;BME280;38141;42.666;23.344;2023-04-09T05:00:46;94901.25;;;7.40;100.00
3178;BME280;38141;42.666;23.344;2023-04-09T05:03:13;94873.72;;;7.28;100.00
3178;BME280;38141;42.666;23.344;2023-04-09T05:05:40;94895.66;;;7.49;100.00
3178;BME280;38141;42.666;23.344;2023-04-09T05:08:07;94869.94;;;7.32;100.00
3178;BME280;38141;42.666;23.344;2023-04-09T05:10:35;94822.03;;;7.19;100.00
3178;BME280;38141;42.666;23.344;2023-04-09T05:13:05;94876.72;;;7.68;100.00
3178;BME280;38141;42.666;23.344;2023-04-09T05:15:31;94837.28;;;7.53;100.00
3178;BME280;38141;42.666;23.344;2023-04-09T05:17:58;94906.28;;;8.10;100.00
3178;BME280;38141;42.666;23.344;2023-04-09T05:20:26;94906.78;;;8.16;100.00
3178;BME280;38141;42.666;23.344;2023-04-09T05:22:53;94911.16;;;8.50;100.00
3178;BME280;38141;42.666;23.344;2023-04-09T05:25:19;94909.41;;;9.21;100.00
3178;BME280;38141;42.666;23.344;2023-04-09T05:27:47;94911.84;;;9.29;100.00
3178;BME280;38141;42.666;23.344;2023-04-09T05:30:14;94917.72;;;9.09;100.00
3178;BME280;38141;42.666;23.344;2023-04-09T05:32:41;94905.25;;;8.97;100.00
3178;BME280;38141;42.666;23.344;2023-04-09T05:35:08;94903.28;;;9.24;100.00
3178;BME280;38141;42.666;23.344;2023-04-09T05:37:35;94890.44;;;9.14;100.00
3178;BME280;38141;42.666;23.344;2023-04-09T05:40:02;94909.63;;;9.09;100.00
3178;BME280;38141;42.666;23.344;2023-04-09T05:42:29;94897.25;;;9.04;100.00
3178;BME280;38141;42.666;23.344;2023-04-09T05:44:57;94916.13;;;9.04;100.00
3178;BME280;38141;42.666;23.344;2023-04-09T05:47:24;94896.59;;;8.55;100.00
3178;BME280;38141;42.666;23.344;2023-04-09T05:49:51;94881.13;;;8.78;100.00
3178;BME280;38141;42.666;23.344;2023-04-09T05:52:17;94913.09;;;9.39;100.00
3178;BME280;38141;42.666;23.344;2023-04-09T05:54:45;94891.81;;;8.71;100.00
3178;BME280;38141;42.666;23.344;2023-04-09T05:57:13;94902.63;;;9.34;100.00
3178;BME280;38141;42.666;23.344;2023-04-09T05:59:40;94890.84;;;8.86;100.00
3178;BME280;38141;42.666;23.344;2023-04-09T06:02:09;94870.66;;;9.03;100.00
3178;BME280;38141;42.666;23.344;2023-04-09T06:04:35;94904.72;;;9.48;100.00
3178;BME280;38141;42.666;23.344;2023-04-09T06:07:04;94764.88;;;8.53;100.00
3178;BME280;38141;42.666;23.344;2023-04-09T06:09:45;94899.47;;;9.62;100.00
3178;BME280;38141;42.666;23.344;2023-04-09T06:12:12;94903.19;;;9.17;100.00
3178;BME280;38141;42.666;23.344;2023-04-09T06:14:39;94870.59;;;9.32;100.00
3178;BME280;38141;42.666;23.344;2023-04-09T06:17:06;94898.06;;;9.42;100.00
3178;BME280;38141;42.666;23.344;2023-04-09T06:19:34;94838.47;;;8.87;100.00
3178;BME280;38141;42.666;23.344;2023-04-09T06:22:01;94867.91;;;8.99;100.00
3178;BME280;38141;42.666;23.344;2023-04-09T06:24:29;94788.63;;;8.77;100.00
3178;BME280;38141;42.666;23.344;2023-04-09T06:26:56;94909.94;;;10.58;100.00
3178;BME280;38141;42.666;23.344;2023-04-09T06:29:24;94924.09;;;10.38;100.00
3178;BME280;38141;42.666;23.344;2023-04-09T06:31:56;94851.25;;;10.11;100.00
3178;BME280;38141;42.666;23.344;2023-04-09T06:34:23;94774.13;;;9.70;100.00
3178;BME280;38141;42.666;23.344;2023-04-09T06:36:51;94819.84;;;9.96;100.00
3178;BME280;38141;42.666;23.344;2023-04-09T06:39:19;94813.19;;;10.31;100.00
3178;BME280;38141;42.666;23.344;2023-04-09T06:44:45;94917.47;;;11.87;100.00
3178;BME280;38141;42.666;23.344;2023-04-09T06:47:12;94895.22;;;11.25;100.00
3178;BME280;38141;42.666;23.344;2023-04-09T06:49:39;94913.91;;;11.62;100.00
3178;BME280;38141;42.666;23.344;2023-04-09T06:52:07;94926.03;;;12.28;91.05
3178;BME280;38141;42.666;23.344;2023-04-09T06:54:34;94935.31;;;11.91;85.60
3178;BME280;38141;42.666;23.344;2023-04-09T06:57:01;94923.66;;;11.77;89.83
3178;BME280;38141;42.666;23.344;2023-04-09T06:59:28;94911.69;;;11.85;86.80
3178;BME280;38141;42.666;23.344;2023-04-09T07:01:54;94849.78;;;10.83;90.54
3178;BME280;38141;42.666;23.344;2023-04-09T07:04:21;94873.50;;;11.18;87.67
3178;BME280;38141;42.666;23.344;2023-04-09T07:06:57;94924.72;;;11.47;91.79
3178;BME280;38141;42.666;23.344;2023-04-09T07:09:25;94941.44;;;10.84;97.96
3178;BME280;38141;42.666;23.344;2023-04-09T07:11:52;94934.44;;;10.83;97.21
3178;BME280;38141;42.666;23.344;2023-04-09T07:14:19;94929.06;;;10.87;97.85
3178;BME280;38141;42.666;23.344;2023-04-09T07:16:46;94928.44;;;11.14;97.15
3178;BME280;38141;42.666;23.344;2023-04-09T07:19:12;94910.25;;;11.11;92.59
3178;BME280;38141;42.666;23.344;2023-04-09T07:21:39;94911.75;;;11.05;94.50
3178;BME280;38141;42.666;23.344;2023-04-09T07:24:06;94915.22;;;9.97;100.00
3178;BME280;38141;42.666;23.344;2023-04-09T07:26:34;94940.44;;;10.52;100.00
3178;BME280;38141;42.666;23.344;2023-04-09T07:29:01;94901.75;;;10.44;97.98
3178;BME280;38141;42.666;23.344;2023-04-09T07:31:28;94933.88;;;10.53;99.17
3178;BME280;38141;42.666;23.344;2023-04-09T07:33:55;94921.56;;;10.62;97.47
3178;BME280;38141;42.666;23.344;2023-04-09T07:36:22;94886.88;;;10.20;97.23
3178;BME280;38141;42.666;23.344;2023-04-09T07:38:51;94941.44;;;10.84;94.85
3178;BME280;38141;42.666;23.344;2023-04-09T07:41:18;94943.44;;;10.98;90.63
3178;BME280;38141;42.666;23.344;2023-04-09T07:43:46;94923.44;;;10.55;91.56
3178;BME280;38141;42.666;23.344;2023-04-09T07:46:17;94956.19;;;10.39;95.08
3178;BME280;38141;42.666;23.344;2023-04-09T07:48:44;94878.28;;;10.11;94.83
3178;BME280;38141;42.666;23.344;2023-04-09T07:51:11;94931.06;;;11.04;90.35
3178;BME280;38141;42.666;23.344;2023-04-09T07:53:38;94947.03;;;11.23;87.75
3178;BME280;38141;42.666;23.344;2023-04-09T07:56:05;94958.28;;;11.29;88.18
3178;BME280;38141;42.666;23.344;2023-04-09T07:58:32;94955.75;;;11.71;82.93
3178;BME280;38141;42.666;23.344;2023-04-09T08:01:00;94972.50;;;11.08;85.39
3178;BME280;38141;42.666;23.344;2023-04-09T08:03:30;94968.03;;;10.72;86.86
3178;BME280;38141;42.666;23.344;2023-04-09T08:05:58;94967.41;;;10.45;88.09
3178;BME280;38141;42.666;23.344;2023-04-09T08:08:24;94963.31;;;10.65;88.27
3178;BME280;38141;42.666;23.344;2023-04-09T08:10:52;94948.25;;;10.16;90.15
3178;BME280;38141;42.666;23.344;2023-04-09T08:13:18;94967.34;;;10.34;93.77
3178;BME280;38141;42.666;23.344;2023-04-09T08:15:45;94935.94;;;10.74;87.97
3178;BME280;38141;42.666;23.344;2023-04-09T08:18:13;94966.00;;;11.23;83.66
3178;BME280;38141;42.666;23.344;2023-04-09T08:20:40;94963.56;;;11.04;85.80
3178;BME280;38141;42.666;23.344;2023-04-09T08:23:09;94940.13;;;10.64;89.42
3178;BME280;38141;42.666;23.344;2023-04-09T08:25:36;94975.53;;;10.99;88.88
3178;BME280;38141;42.666;23.344;2023-04-09T08:28:03;94960.41;;;10.95;85.76
3178;BME280;38141;42.666;23.344;2023-04-09T08:30:30;94920.72;;;10.55;85.80
3178;BME280;38141;42.666;23.344;2023-04-09T08:32:58;94935.41;;;10.54;87.82
3178;BME280;38141;42.666;23.344;2023-04-09T08:35:28;94857.44;;;10.66;86.16
3178;BME280;38141;42.666;23.344;2023-04-09T08:37:58;94937.16;;;10.83;87.77
3178;BME280;38141;42.666;23.344;2023-04-09T08:40:25;94974.69;;;11.68;85.60
3178;BME280;38141;42.666;23.344;2023-04-09T08:42:53;94955.75;;;10.92;90.30
3178;BME280;38141;42.666;23.344;2023-04-09T08:45:21;94877.09;;;11.50;84.25
3178;BME280;38141;42.666;23.344;2023-04-09T08:47:49;94879.59;;;10.90;83.11
3178;BME280;38141;42.666;23.344;2023-04-09T08:50:16;94810.16;;;11.47;79.26
3178;BME280;38141;42.666;23.344;2023-04-09T08:52:46;94953.16;;;12.77;76.28
3178;BME280;38141;42.666;23.344;2023-04-09T08:55:13;94939.22;;;12.08;78.90
3178;BME280;38141;42.666;23.344;2023-04-09T08:57:40;94959.28;;;11.86;81.46
3178;BME280;38141;42.666;23.344;2023-04-09T09:00:08;94958.19;;;12.08;82.59
3178;BME280;38141;42.666;23.344;2023-04-09T09:02:35;94867.91;;;12.61;71.88
3178;BME280;38141;42.666;23.344;2023-04-09T09:05:03;94953.56;;;12.83;72.01
3178;BME280;38141;42.666;23.344;2023-04-09T09:07:30;94943.88;;;12.32;74.38
3178;BME280;38141;42.666;23.344;2023-04-09T09:10:00;94942.66;;;11.80;80.41
3178;BME280;38141;42.666;23.344;2023-04-09T09:12:36;94954.31;;;12.06;79.55
3178;BME280;38141;42.666;23.344;2023-04-09T09:15:05;94958.34;;;13.80;70.03
3178;BME280;38141;42.666;23.344;2023-04-09T09:17:52;94905.03;;;14.93;60.14
3178;BME280;38141;42.666;23.344;2023-04-09T09:20:21;94934.69;;;15.58;58.17
3178;BME280;38141;42.666;23.344;2023-04-09T09:22:48;94935.56;;;15.82;54.96
3178;BME280;38141;42.666;23.344;2023-04-09T09:25:17;94937.28;;;15.99;56.29
3178;BME280;38141;42.666;23.344;2023-04-09T09:27:47;94873.34;;;16.00;53.18
3178;BME280;38141;42.666;23.344;2023-04-09T09:30:20;94921.28;;;15.37;55.14
3178;BME280;38141;42.666;23.344;2023-04-09T09:32:50;94883.16;;;16.48;52.56
3178;BME280;38141;42.666;23.344;2023-04-09T09:35:17;94947.44;;;17.03;50.50
3178;BME280;38141;42.666;23.344;2023-04-09T09:37:44;94939.25;;;17.65;49.03
3178;BME280;38141;42.666;23.344;2023-04-09T09:40:26;94922.84;;;18.53;48.19
3178;BME280;38141;42.666;23.344;2023-04-09T09:42:54;94933.63;;;16.63;51.00
3178;BME280;38141;42.666;23.344;2023-04-09T09:45:22;94856.50;;;16.06;51.00
3178;BME280;38141;42.666;23.344;2023-04-09T09:47:52;94905.22;;;16.34;51.80
3178;BME280;38141;42.666;23.344;2023-04-09T09:50:20;94930.28;;;16.52;51.21
3178;BME280;38141;42.666;23.344;2023-04-09T09:52:49;94878.75;;;17.40;49.22
3178;BME280;38141;42.666;23.344;2023-04-09T09:55:20;94878.69;;;16.34;49.81
3178;BME280;38141;42.666;23.344;2023-04-09T09:57:51;94912.78;;;16.96;48.75
3178;BME280;38141;42.666;23.344;2023-04-09T10:00:18;94884.47;;;19.02;45.50
3178;BME280;38141;42.666;23.344;2023-04-09T10:02:53;94917.66;;;18.07;45.59
3178;BME280;38141;42.666;23.344;2023-04-09T10:05:23;94845.38;;;18.69;44.23
3178;BME280;38141;42.666;23.344;2023-04-09T10:07:53;94894.03;;;18.13;45.62
3178;BME280;38141;42.666;23.344;2023-04-09T10:10:21;94873.03;;;15.00;50.84
3178;BME280;38141;42.666;23.344;2023-04-09T10:12:50;94833.50;;;16.53;48.51
3178;BME280;38141;42.666;23.344;2023-04-09T10:15:18;94856.63;;;16.49;47.83
3178;BME280;38141;42.666;23.344;2023-04-09T10:17:46;94870.22;;;17.38;47.14
3178;BME280;38141;42.666;23.344;2023-04-09T10:20:16;94902.34;;;16.91;46.97
3178;BME280;38141;42.666;23.344;2023-04-09T10:22:47;94868.09;;;16.36;48.06
3178;BME280;38141;42.666;23.344;2023-04-09T10:25:16;94763.22;;;15.64;48.83
3178;BME280;38141;42.666;23.344;2023-04-09T10:27:43;94843.06;;;16.88;47.52
3178;BME280;38141;42.666;23.344;2023-04-09T10:30:30;94837.66;;;17.24;46.14
3178;BME280;38141;42.666;23.344;2023-04-09T10:33:07;94900.69;;;17.37;46.67
3178;BME280;38141;42.666;23.344;2023-04-09T10:35:35;94877.00;;;17.50;45.99
3178;BME280;38141;42.666;23.344;2023-04-09T10:38:02;94905.34;;;17.40;46.74
3178;BME280;38141;42.666;23.344;2023-04-09T10:40:29;94883.03;;;16.78;47.14
3178;BME280;38141;42.666;23.344;2023-04-09T10:42:57;94874.41;;;15.53;50.40
3178;BME280;38141;42.666;23.344;2023-04-09T10:45:38;94869.69;;;15.57;50.09
3178;BME280;38141;42.666;23.344;2023-04-09T10:48:05;94831.66;;;15.12;51.30
3178;BME280;38141;42.666;23.344;2023-04-09T10:50:37;94863.00;;;15.88;50.14
3178;BME280;38141;42.666;23.344;2023-04-09T10:53:04;94872.63;;;15.70;50.21
3178;BME280;38141;42.666;23.344;2023-04-09T10:55:35;94867.47;;;15.11;50.42
3178;BME280;38141;42.666;23.344;2023-04-09T10:58:03;94862.88;;;15.04;51.76
3178;BME280;38141;42.666;23.344;2023-04-09T11:00:32;94856.19;;;15.12;52.15
3178;BME280;38141;42.666;23.344;2023-04-09T11:03:22;94843.72;;;15.42;51.49
3178;BME280;38141;42.666;23.344;2023-04-09T11:05:56;94836.34;;;15.12;51.80
3178;BME280;38141;42.666;23.344;2023-04-09T11:08:27;94829.03;;;14.23;53.47
3178;BME280;38141;42.666;23.344;2023-04-09T11:10:54;94837.69;;;14.11;53.65
3178;BME280;38141;42.666;23.344;2023-04-09T11:13:23;94835.91;;;13.87;54.06
3178;BME280;38141;42.666;23.344;2023-04-09T11:15:53;94817.97;;;13.42;55.40
3178;BME280;38141;42.666;23.344;2023-04-09T11:18:21;94826.34;;;13.68;56.60
3178;BME280;38141;42.666;23.344;2023-04-09T11:20:48;94850.69;;;13.90;58.05
3178;BME280;38141;42.666;23.344;2023-04-09T11:23:16;94810.81;;;13.69;58.98
3178;BME280;38141;42.666;23.344;2023-04-09T11:25:48;94748.69;;;13.02;59.07
3178;BME280;38141;42.666;23.344;2023-04-09T11:28:16;94852.13;;;13.35;59.91
3178;BME280;38141;42.666;23.344;2023-04-09T11:30:43;94838.56;;;13.35;57.79
3178;BME280;38141;42.666;23.344;2023-04-09T11:33:13;94848.97;;;13.51;57.86
3178;BME280;38141;42.666;23.344;2023-04-09T11:35:40;94803.78;;;13.75;57.81
3178;BME280;38141;42.666;23.344;2023-04-09T11:38:07;94777.91;;;14.01;55.13
3178;BME280;38141;42.666;23.344;2023-04-09T11:40:35;94785.75;;;13.92;54.28
3178;BME280;38141;42.666;23.344;2023-04-09T11:43:08;94768.13;;;13.62;54.36
3178;BME280;38141;42.666;23.344;2023-04-09T11:45:35;94816.72;;;14.08;55.87
3178;BME280;38141;42.666;23.344;2023-04-09T11:48:02;94804.44;;;14.34;55.04
3178;BME280;38141;42.666;23.344;2023-04-09T11:50:31;94783.97;;;14.19;52.87
3178;BME280;38141;42.666;23.344;2023-04-09T11:52:58;94775.75;;;14.26;52.87
3178;BME280;38141;42.666;23.344;2023-04-09T11:55:26;94711.78;;;14.11;53.37
3178;BME280;38141;42.666;23.344;2023-04-09T11:57:56;94759.69;;;13.98;53.80
3178;BME280;38141;42.666;23.344;2023-04-09T12:00:25;94742.94;;;13.99;53.51
3178;BME280;38141;42.666;23.344;2023-04-09T12:02:59;94741.84;;;14.38;52.59
3178;BME280;38141;42.666;23.344;2023-04-09T12:05:31;94761.41;;;13.77;51.80
3178;BME280;38141;42.666;23.344;2023-04-09T12:08:00;94816.06;;;13.94;51.47
3178;BME280;38141;42.666;23.344;2023-04-09T12:10:28;94788.31;;;13.65;50.35
3178;BME280;38141;42.666;23.344;2023-04-09T12:13:00;94811.63;;;13.62;51.78
3178;BME280;38141;42.666;23.344;2023-04-09T12:15:37;94841.28;;;13.35;55.07
3178;BME280;38141;42.666;23.344;2023-04-09T12:18:07;94669.97;;;12.98;54.32
3178;BME280;38141;42.666;23.344;2023-04-09T12:20:37;94793.13;;;13.95;54.29
3178;BME280;38141;42.666;23.344;2023-04-09T12:23:05;94717.56;;;13.72;53.34
3178;BME280;38141;42.666;23.344;2023-04-09T12:25:33;94671.44;;;14.02;52.55
3178;BME280;38141;42.666;23.344;2023-04-09T12:28:01;94811.09;;;15.04;52.01
3178;BME280;38141;42.666;23.344;2023-04-09T12:30:29;94734.97;;;14.60;47.74
3178;BME280;38141;42.666;23.344;2023-04-09T12:32:57;94801.59;;;14.52;49.62
3178;BME280;38141;42.666;23.344;2023-04-09T12:35:24;94792.38;;;14.39;49.79
3178;BME280;38141;42.666;23.344;2023-04-09T12:37:52;94762.50;;;14.69;49.39
3178;BME280;38141;42.666;23.344;2023-04-09T12:40:20;94786.34;;;15.22;50.45
3178;BME280;38141;42.666;23.344;2023-04-09T12:42:47;94791.31;;;15.31;50.29
3178;BME280;38141;42.666;23.344;2023-04-09T12:45:15;94719.78;;;14.62;47.95
3178;BME280;38141;42.666;23.344;2023-04-09T12:47:43;94787.09;;;14.62;48.84
3178;BME280;38141;42.666;23.344;2023-04-09T12:50:11;94766.00;;;14.69;48.30
3178;BME280;38141;42.666;23.344;2023-04-09T12:52:38;94653.72;;;13.87;48.95
3178;BME280;38141;42.666;23.344;2023-04-09T12:55:07;94708.81;;;14.36;49.58
3178;BME280;38141;42.666;23.344;2023-04-09T12:57:35;94753.81;;;15.11;49.75
3178;BME280;38141;42.666;23.344;2023-04-09T13:00:03;94764.84;;;15.01;50.40
3178;BME280;38141;42.666;23.344;2023-04-09T13:02:30;94780.22;;;14.84;49.27
3178;BME280;38141;42.666;23.344;2023-04-09T13:04:59;94706.38;;;14.04;48.92
3178;BME280;38141;42.666;23.344;2023-04-09T13:07:26;94698.00;;;14.62;50.65
3178;BME280;38141;42.666;23.344;2023-04-09T13:09:54;94759.41;;;15.28;50.60